Airfield :
LOGIN :

Register | Disclaimer

   EN    FR    IT 

 










Legend :    VFR   Marginal VFR   IFR   Intensive IFR   Very Intensive IFR
Visi :
Ceiling :
>= 8 km
>= 3000ft
5 to 8 km
1000 to 3000 ft
1500m to 5 km
500 to 1000 ft
800 to 1500m
200 to 500 ft
< 800m
< 200 ft
Symbols :   Thunderstorms  Fog  Heavy snow  Heavy precipitations  Wind > 20 kt
SIGMETs :     Misc.  Thunderstorms  Icing  Turbulence  Mountain Waves  Volcanic Ashes






- Airport Elevation : 13 ft
- IATA code : GOA


LIMJ - Genoa Cristoforo Colombo

CURRENT METAR :
  • 062220Z 04003KT CAVOK 27/20 Q1014

EXPIRED METARs :
  • 062150Z VRB01KT CAVOK 27/22 Q1014
  • 062120Z 27003KT CAVOK 27/25 Q1014
  • 062050Z 30003KT 260V360 CAVOK 27/23 Q1014
  • 062020Z 26004KT CAVOK 27/24 Q1014
  • 061950Z 27003KT 9999 FEW065 27/24 Q1014

TAF TAF LIMJ
Valid from the 06 at 18:00 until the 07 at 18:00 UTC


061700Z 0618/0718 35010KT CAVOK
BECMG 0714/0716 20008KT



MET'MAP, your aeronautical weather chart ! - Copyright ORBIFLY December 2007 - Disclaimer

ORBIFLY MET'MAP TEAM :

Programming & Development : Alexandra Zaïnal
Original concept : Baudouin d'Aumeries
Technical & hardware support : Manuel Goepfert
Assistance : Marc-Olivier Méhu




SOURCES & CREDITS :

   NOAA